sensor_id;sensor_type;location;lat;lon;timestamp;P1;durP1;ratioP1;P2;durP2;ratioP2
57329;SDS011;43163;51.032;18.280;2022-09-29T00:00:40;10.60;;;7.60;;
57329;SDS011;43163;51.032;18.280;2022-09-29T00:03:06;8.00;;;6.90;;
57329;SDS011;43163;51.032;18.280;2022-09-29T00:05:32;11.80;;;8.30;;
57329;SDS011;43163;51.032;18.280;2022-09-29T00:07:58;11.70;;;8.20;;
57329;SDS011;43163;51.032;18.280;2022-09-29T00:10:24;10.10;;;6.90;;
57329;SDS011;43163;51.032;18.280;2022-09-29T00:12:51;10.50;;;7.70;;
57329;SDS011;43163;51.032;18.280;2022-09-29T00:15:17;10.60;;;7.10;;
57329;SDS011;43163;51.032;18.280;2022-09-29T00:17:43;12.20;;;7.70;;
57329;SDS011;43163;51.032;18.280;2022-09-29T00:20:10;11.60;;;7.00;;
57329;SDS011;43163;51.032;18.280;2022-09-29T00:22:36;10.30;;;7.40;;
57329;SDS011;43163;51.032;18.280;2022-09-29T00:25:02;10.30;;;7.10;;
57329;SDS011;43163;51.032;18.280;2022-09-29T00:27:29;10.20;;;7.10;;
57329;SDS011;43163;51.032;18.280;2022-09-29T00:29:55;9.20;;;7.00;;
57329;SDS011;43163;51.032;18.280;2022-09-29T00:32:21;10.70;;;6.60;;
57329;SDS011;43163;51.032;18.280;2022-09-29T00:34:47;9.90;;;6.90;;
57329;SDS011;43163;51.032;18.280;2022-09-29T00:37:15;9.60;;;6.90;;
57329;SDS011;43163;51.032;18.280;2022-09-29T00:39:41;10.70;;;7.20;;
57329;SDS011;43163;51.032;18.280;2022-09-29T00:42:09;9.70;;;7.30;;
57329;SDS011;43163;51.032;18.280;2022-09-29T00:47:40;11.00;;;7.90;;
57329;SDS011;43163;51.032;18.280;2022-09-29T00:50:12;11.60;;;8.70;;
57329;SDS011;43163;51.032;18.280;2022-09-29T00:52:44;14.20;;;10.00;;
57329;SDS011;43163;51.032;18.280;2022-09-29T00:55:19;12.80;;;10.10;;
57329;SDS011;43163;51.032;18.280;2022-09-29T00:58:00;13.60;;;9.30;;
57329;SDS011;43163;51.032;18.280;2022-09-29T01:00:36;12.60;;;10.00;;
57329;SDS011;43163;51.032;18.280;2022-09-29T01:03:09;11.90;;;9.60;;
57329;SDS011;43163;51.032;18.280;2022-09-29T01:05:39;13.30;;;9.60;;
57329;SDS011;43163;51.032;18.280;2022-09-29T01:08:21;18.00;;;9.70;;
57329;SDS011;43163;51.032;18.280;2022-09-29T01:10:48;13.70;;;9.60;;
57329;SDS011;43163;51.032;18.280;2022-09-29T01:13:15;13.40;;;9.50;;
57329;SDS011;43163;51.032;18.280;2022-09-29T01:15:43;11.80;;;9.20;;
57329;SDS011;43163;51.032;18.280;2022-09-29T01:18:09;12.10;;;8.90;;
57329;SDS011;43163;51.032;18.280;2022-09-29T01:20:40;12.30;;;9.00;;
57329;SDS011;43163;51.032;18.280;2022-09-29T01:35:42;11.90;;;8.80;;
57329;SDS011;43163;51.032;18.280;2022-09-29T01:43:34;11.50;;;8.60;;
57329;SDS011;43163;51.032;18.280;2022-09-29T01:46:07;14.50;;;8.90;;
57329;SDS011;43163;51.032;18.280;2022-09-29T01:48:39;9.90;;;7.70;;
57329;SDS011;43163;51.032;18.280;2022-09-29T01:51:10;15.90;;;8.70;;
57329;SDS011;43163;51.032;18.280;2022-09-29T01:53:56;11.70;;;8.40;;
57329;SDS011;43163;51.032;18.280;2022-09-29T01:56:32;11.30;;;8.20;;
57329;SDS011;43163;51.032;18.280;2022-09-29T01:59:16;11.30;;;8.10;;
57329;SDS011;43163;51.032;18.280;2022-09-29T02:01:43;11.30;;;8.50;;
57329;SDS011;43163;51.032;18.280;2022-09-29T02:04:13;10.00;;;8.10;;
57329;SDS011;43163;51.032;18.280;2022-09-29T02:06:44;11.80;;;8.50;;
57329;SDS011;43163;51.032;18.280;2022-09-29T02:09:21;11.40;;;8.50;;
57329;SDS011;43163;51.032;18.280;2022-09-29T02:11:51;11.20;;;9.30;;
57329;SDS011;43163;51.032;18.280;2022-09-29T02:14:21;11.50;;;9.40;;
57329;SDS011;43163;51.032;18.280;2022-09-29T02:16:53;12.80;;;9.70;;
57329;SDS011;43163;51.032;18.280;2022-09-29T02:19:22;12.30;;;9.90;;
57329;SDS011;43163;51.032;18.280;2022-09-29T02:21:50;12.20;;;9.40;;
57329;SDS011;43163;51.032;18.280;2022-09-29T02:24:20;13.00;;;9.70;;
57329;SDS011;43163;51.032;18.280;2022-09-29T02:26:47;13.10;;;9.80;;
57329;SDS011;43163;51.032;18.280;2022-09-29T02:29:13;13.40;;;11.10;;
57329;SDS011;43163;51.032;18.280;2022-09-29T02:31:40;14.70;;;11.10;;
57329;SDS011;43163;51.032;18.280;2022-09-29T02:34:10;13.00;;;10.40;;
57329;SDS011;43163;51.032;18.280;2022-09-29T02:36:53;13.60;;;10.00;;
57329;SDS011;43163;51.032;18.280;2022-09-29T02:47:50;11.90;;;9.80;;
57329;SDS011;43163;51.032;18.280;2022-09-29T02:59:00;11.70;;;9.20;;
57329;SDS011;43163;51.032;18.280;2022-09-29T03:01:49;12.90;;;9.70;;
57329;SDS011;43163;51.032;18.280;2022-09-29T03:04:17;11.90;;;9.80;;
57329;SDS011;43163;51.032;18.280;2022-09-29T03:06:45;12.20;;;10.60;;
57329;SDS011;43163;51.032;18.280;2022-09-29T03:09:11;14.70;;;10.60;;
57329;SDS011;43163;51.032;18.280;2022-09-29T03:11:37;11.50;;;9.30;;
57329;SDS011;43163;51.032;18.280;2022-09-29T03:14:03;11.50;;;9.50;;
57329;SDS011;43163;51.032;18.280;2022-09-29T03:16:31;12.30;;;9.70;;
57329;SDS011;43163;51.032;18.280;2022-09-29T03:18:58;12.50;;;10.00;;
57329;SDS011;43163;51.032;18.280;2022-09-29T03:21:24;14.70;;;9.90;;
57329;SDS011;43163;51.032;18.280;2022-09-29T03:23:50;13.20;;;9.60;;
57329;SDS011;43163;51.032;18.280;2022-09-29T03:26:16;13.80;;;10.30;;
57329;SDS011;43163;51.032;18.280;2022-09-29T03:28:43;14.40;;;10.70;;
57329;SDS011;43163;51.032;18.280;2022-09-29T03:31:09;14.90;;;10.70;;
57329;SDS011;43163;51.032;18.280;2022-09-29T03:33:36;11.20;;;9.90;;
57329;SDS011;43163;51.032;18.280;2022-09-29T03:36:03;11.80;;;10.50;;
57329;SDS011;43163;51.032;18.280;2022-09-29T03:38:33;14.10;;;10.60;;
57329;SDS011;43163;51.032;18.280;2022-09-29T03:40:59;13.50;;;11.10;;
57329;SDS011;43163;51.032;18.280;2022-09-29T03:43:25;14.10;;;11.40;;
57329;SDS011;43163;51.032;18.280;2022-09-29T03:45:52;14.20;;;10.40;;
57329;SDS011;43163;51.032;18.280;2022-09-29T03:48:19;13.70;;;10.00;;
57329;SDS011;43163;51.032;18.280;2022-09-29T03:50:47;13.20;;;9.60;;
57329;SDS011;43163;51.032;18.280;2022-09-29T03:53:14;12.40;;;9.40;;
57329;SDS011;43163;51.032;18.280;2022-09-29T03:55:44;13.10;;;9.80;;
57329;SDS011;43163;51.032;18.280;2022-09-29T03:58:11;13.20;;;10.40;;
57329;SDS011;43163;51.032;18.280;2022-09-29T04:00:37;14.60;;;11.30;;
57329;SDS011;43163;51.032;18.280;2022-09-29T04:03:04;15.90;;;11.00;;
57329;SDS011;43163;51.032;18.280;2022-09-29T04:05:31;13.40;;;10.70;;
57329;SDS011;43163;51.032;18.280;2022-09-29T04:08:00;14.00;;;10.80;;
57329;SDS011;43163;51.032;18.280;2022-09-29T04:10:26;13.00;;;10.50;;
57329;SDS011;43163;51.032;18.280;2022-09-29T04:12:52;14.40;;;10.80;;
57329;SDS011;43163;51.032;18.280;2022-09-29T04:15:18;13.90;;;11.10;;
57329;SDS011;43163;51.032;18.280;2022-09-29T04:17:44;15.60;;;10.90;;
57329;SDS011;43163;51.032;18.280;2022-09-29T04:20:10;14.80;;;10.50;;
57329;SDS011;43163;51.032;18.280;2022-09-29T04:22:36;13.90;;;10.50;;
57329;SDS011;43163;51.032;18.280;2022-09-29T04:25:03;12.20;;;10.50;;
57329;SDS011;43163;51.032;18.280;2022-09-29T04:27:29;13.60;;;10.40;;
57329;SDS011;43163;51.032;18.280;2022-09-29T04:29:55;13.90;;;10.90;;
57329;SDS011;43163;51.032;18.280;2022-09-29T04:32:21;15.20;;;10.50;;
57329;SDS011;43163;51.032;18.280;2022-09-29T04:34:49;13.40;;;10.50;;
57329;SDS011;43163;51.032;18.280;2022-09-29T04:37:15;16.00;;;10.90;;
57329;SDS011;43163;51.032;18.280;2022-09-29T04:39:41;13.50;;;10.40;;
57329;SDS011;43163;51.032;18.280;2022-09-29T04:42:07;15.50;;;10.70;;
57329;SDS011;43163;51.032;18.280;2022-09-29T04:44:34;12.50;;;10.40;;
57329;SDS011;43163;51.032;18.280;2022-09-29T04:47:00;14.40;;;10.60;;
57329;SDS011;43163;51.032;18.280;2022-09-29T04:49:26;14.20;;;10.00;;
57329;SDS011;43163;51.032;18.280;2022-09-29T04:51:53;15.90;;;10.90;;
57329;SDS011;43163;51.032;18.280;2022-09-29T04:54:19;13.90;;;10.80;;
57329;SDS011;43163;51.032;18.280;2022-09-29T04:56:47;40.50;;;34.40;;
57329;SDS011;43163;51.032;18.280;2022-09-29T04:59:14;45.30;;;39.50;;
57329;SDS011;43163;51.032;18.280;2022-09-29T05:01:42;33.30;;;28.40;;
57329;SDS011;43163;51.032;18.280;2022-09-29T05:04:08;13.90;;;11.80;;
57329;SDS011;43163;51.032;18.280;2022-09-29T05:06:35;16.20;;;12.80;;
57329;SDS011;43163;51.032;18.280;2022-09-29T05:09:04;13.50;;;11.80;;
57329;SDS011;43163;51.032;18.280;2022-09-29T05:11:30;12.40;;;10.50;;
57329;SDS011;43163;51.032;18.280;2022-09-29T05:13:56;16.20;;;11.00;;
57329;SDS011;43163;51.032;18.280;2022-09-29T05:16:23;16.50;;;11.20;;
57329;SDS011;43163;51.032;18.280;2022-09-29T05:18:49;14.40;;;10.80;;
57329;SDS011;43163;51.032;18.280;2022-09-29T05:21:16;36.80;;;28.50;;
57329;SDS011;43163;51.032;18.280;2022-09-29T05:23:42;46.70;;;38.60;;
57329;SDS011;43163;51.032;18.280;2022-09-29T05:26:08;13.90;;;12.40;;
57329;SDS011;43163;51.032;18.280;2022-09-29T05:28:36;15.60;;;12.80;;
57329;SDS011;43163;51.032;18.280;2022-09-29T05:31:04;17.20;;;13.70;;
57329;SDS011;43163;51.032;18.280;2022-09-29T05:33:32;13.50;;;10.90;;
57329;SDS011;43163;51.032;18.280;2022-09-29T05:35:59;14.60;;;10.80;;
57329;SDS011;43163;51.032;18.280;2022-09-29T05:38:25;24.30;;;20.80;;
57329;SDS011;43163;51.032;18.280;2022-09-29T05:40:52;21.90;;;19.00;;
57329;SDS011;43163;51.032;18.280;2022-09-29T05:43:18;14.20;;;11.00;;
57329;SDS011;43163;51.032;18.280;2022-09-29T05:45:45;15.40;;;10.80;;
57329;SDS011;43163;51.032;18.280;2022-09-29T05:48:12;13.20;;;10.80;;
57329;SDS011;43163;51.032;18.280;2022-09-29T05:50:38;13.80;;;10.30;;
57329;SDS011;43163;51.032;18.280;2022-09-29T05:53:10;12.00;;;9.90;;
57329;SDS011;43163;51.032;18.280;2022-09-29T05:55:36;12.60;;;10.70;;
57329;SDS011;43163;51.032;18.280;2022-09-29T05:58:04;14.10;;;11.50;;
57329;SDS011;43163;51.032;18.280;2022-09-29T06:00:31;14.40;;;10.40;;
57329;SDS011;43163;51.032;18.280;2022-09-29T06:02:58;13.00;;;10.00;;
57329;SDS011;43163;51.032;18.280;2022-09-29T06:05:25;14.40;;;11.50;;
57329;SDS011;43163;51.032;18.280;2022-09-29T06:07:53;12.40;;;9.90;;
57329;SDS011;43163;51.032;18.280;2022-09-29T06:10:19;12.90;;;10.00;;
57329;SDS011;43163;51.032;18.280;2022-09-29T06:12:47;12.60;;;9.80;;
57329;SDS011;43163;51.032;18.280;2022-09-29T06:15:14;12.60;;;9.90;;
57329;SDS011;43163;51.032;18.280;2022-09-29T06:17:42;11.30;;;9.70;;
57329;SDS011;43163;51.032;18.280;2022-09-29T06:20:09;12.40;;;9.50;;
57329;SDS011;43163;51.032;18.280;2022-09-29T06:22:37;18.80;;;15.80;;
57329;SDS011;43163;51.032;18.280;2022-09-29T06:25:05;11.60;;;10.40;;
57329;SDS011;43163;51.032;18.280;2022-09-29T06:27:32;15.00;;;12.90;;
57329;SDS011;43163;51.032;18.280;2022-09-29T06:30:00;20.10;;;16.30;;
57329;SDS011;43163;51.032;18.280;2022-09-29T06:32:28;30.40;;;27.00;;
57329;SDS011;43163;51.032;18.280;2022-09-29T06:34:55;33.00;;;26.60;;
57329;SDS011;43163;51.032;18.280;2022-09-29T06:37:58;70.40;;;55.20;;
57329;SDS011;43163;51.032;18.280;2022-09-29T06:40:25;39.50;;;28.50;;
57329;SDS011;43163;51.032;18.280;2022-09-29T06:42:53;40.60;;;23.20;;
57329;SDS011;43163;51.032;18.280;2022-09-29T06:45:20;145.10;;;80.50;;
57329;SDS011;43163;51.032;18.280;2022-09-29T06:47:48;72.60;;;45.90;;
57329;SDS011;43163;51.032;18.280;2022-09-29T06:50:15;80.60;;;54.60;;
57329;SDS011;43163;51.032;18.280;2022-09-29T06:52:41;85.70;;;54.90;;
57329;SDS011;43163;51.032;18.280;2022-09-29T06:55:07;56.80;;;43.70;;
57329;SDS011;43163;51.032;18.280;2022-09-29T06:57:33;37.50;;;30.00;;
57329;SDS011;43163;51.032;18.280;2022-09-29T07:00:01;51.60;;;41.40;;
57329;SDS011;43163;51.032;18.280;2022-09-29T07:02:27;18.60;;;16.60;;
57329;SDS011;43163;51.032;18.280;2022-09-29T07:04:53;31.00;;;27.70;;
57329;SDS011;43163;51.032;18.280;2022-09-29T07:07:19;27.00;;;22.80;;
57329;SDS011;43163;51.032;18.280;2022-09-29T07:09:45;20.30;;;17.80;;
57329;SDS011;43163;51.032;18.280;2022-09-29T07:12:11;22.50;;;20.20;;
57329;SDS011;43163;51.032;18.280;2022-09-29T07:14:37;23.70;;;20.50;;
57329;SDS011;43163;51.032;18.280;2022-09-29T07:17:04;33.70;;;27.40;;
57329;SDS011;43163;51.032;18.280;2022-09-29T07:19:30;18.20;;;12.10;;
57329;SDS011;43163;51.032;18.280;2022-09-29T07:21:57;13.00;;;9.50;;
57329;SDS011;43163;51.032;18.280;2022-09-29T07:24:23;11.80;;;10.40;;
57329;SDS011;43163;51.032;18.280;2022-09-29T07:26:50;16.40;;;12.90;;
57329;SDS011;43163;51.032;18.280;2022-09-29T07:29:16;13.00;;;10.40;;
57329;SDS011;43163;51.032;18.280;2022-09-29T07:31:42;11.30;;;9.00;;
57329;SDS011;43163;51.032;18.280;2022-09-29T07:34:10;10.80;;;8.90;;
57329;SDS011;43163;51.032;18.280;2022-09-29T07:36:36;11.80;;;9.30;;
57329;SDS011;43163;51.032;18.280;2022-09-29T07:39:03;12.20;;;9.30;;
57329;SDS011;43163;51.032;18.280;2022-09-29T07:41:29;13.10;;;9.70;;
57329;SDS011;43163;51.032;18.280;2022-09-29T07:43:56;14.10;;;9.70;;
57329;SDS011;43163;51.032;18.280;2022-09-29T07:46:22;12.00;;;9.50;;
57329;SDS011;43163;51.032;18.280;2022-09-29T07:48:48;11.40;;;9.00;;
57329;SDS011;43163;51.032;18.280;2022-09-29T07:51:16;11.80;;;9.90;;
57329;SDS011;43163;51.032;18.280;2022-09-29T07:53:43;13.20;;;9.80;;
57329;SDS011;43163;51.032;18.280;2022-09-29T07:56:11;14.40;;;10.70;;
57329;SDS011;43163;51.032;18.280;2022-09-29T07:58:43;14.60;;;11.20;;
57329;SDS011;43163;51.032;18.280;2022-09-29T08:01:10;15.50;;;11.90;;
57329;SDS011;43163;51.032;18.280;2022-09-29T08:03:38;14.50;;;11.60;;
57329;SDS011;43163;51.032;18.280;2022-09-29T08:06:06;14.80;;;12.10;;
57329;SDS011;43163;51.032;18.280;2022-09-29T08:08:36;11.70;;;9.80;;
57329;SDS011;43163;51.032;18.280;2022-09-29T08:11:03;12.50;;;10.40;;
57329;SDS011;43163;51.032;18.280;2022-09-29T08:13:30;12.90;;;10.70;;
57329;SDS011;43163;51.032;18.280;2022-09-29T08:15:58;12.70;;;10.50;;
57329;SDS011;43163;51.032;18.280;2022-09-29T08:18:25;12.60;;;9.50;;
57329;SDS011;43163;51.032;18.280;2022-09-29T08:20:52;17.30;;;13.40;;
57329;SDS011;43163;51.032;18.280;2022-09-29T08:23:21;12.00;;;10.20;;
57329;SDS011;43163;51.032;18.280;2022-09-29T08:25:48;11.00;;;7.70;;
57329;SDS011;43163;51.032;18.280;2022-09-29T08:28:35;10.30;;;7.30;;
57329;SDS011;43163;51.032;18.280;2022-09-29T08:31:03;10.40;;;8.30;;
57329;SDS011;43163;51.032;18.280;2022-09-29T08:33:30;25.50;;;20.80;;
57329;SDS011;43163;51.032;18.280;2022-09-29T08:35:57;10.30;;;8.70;;
57329;SDS011;43163;51.032;18.280;2022-09-29T08:38:25;20.10;;;14.90;;
57329;SDS011;43163;51.032;18.280;2022-09-29T08:40:52;10.00;;;8.30;;
57329;SDS011;43163;51.032;18.280;2022-09-29T08:43:21;11.50;;;8.70;;
57329;SDS011;43163;51.032;18.280;2022-09-29T08:45:59;9.90;;;7.50;;
57329;SDS011;43163;51.032;18.280;2022-09-29T08:48:28;9.40;;;7.70;;
57329;SDS011;43163;51.032;18.280;2022-09-29T08:51:00;10.00;;;7.60;;
57329;SDS011;43163;51.032;18.280;2022-09-29T08:53:31;6.80;;;6.00;;
57329;SDS011;43163;51.032;18.280;2022-09-29T08:56:32;7.60;;;6.20;;
57329;SDS011;43163;51.032;18.280;2022-09-29T08:58:51;8.00;;;6.80;;
57329;SDS011;43163;51.032;18.280;2022-09-29T09:01:20;7.60;;;6.80;;
57329;SDS011;43163;51.032;18.280;2022-09-29T09:03:55;8.00;;;7.10;;
57329;SDS011;43163;51.032;18.280;2022-09-29T09:06:41;18.00;;;13.20;;
57329;SDS011;43163;51.032;18.280;2022-09-29T09:09:20;9.30;;;7.40;;
57329;SDS011;43163;51.032;18.280;2022-09-29T09:15:05;8.20;;;7.40;;
57329;SDS011;43163;51.032;18.280;2022-09-29T09:17:45;10.60;;;8.10;;
57329;SDS011;43163;51.032;18.280;2022-09-29T09:20:43;9.10;;;7.10;;
57329;SDS011;43163;51.032;18.280;2022-09-29T09:23:23;8.80;;;6.40;;
57329;SDS011;43163;51.032;18.280;2022-09-29T09:26:11;10.50;;;8.30;;
57329;SDS011;43163;51.032;18.280;2022-09-29T09:28:42;11.10;;;8.70;;
57329;SDS011;43163;51.032;18.280;2022-09-29T09:36:29;12.80;;;9.30;;
57329;SDS011;43163;51.032;18.280;2022-09-29T09:41:28;11.90;;;8.90;;
57329;SDS011;43163;51.032;18.280;2022-09-29T09:43:57;9.00;;;7.30;;
57329;SDS011;43163;51.032;18.280;2022-09-29T09:46:33;8.00;;;7.00;;
57329;SDS011;43163;51.032;18.280;2022-09-29T09:51:34;7.00;;;5.10;;
57329;SDS011;43163;51.032;18.280;2022-09-29T09:54:32;6.80;;;5.10;;
57329;SDS011;43163;51.032;18.280;2022-09-29T09:57:26;5.80;;;4.80;;
57329;SDS011;43163;51.032;18.280;2022-09-29T10:00:11;7.00;;;4.90;;
57329;SDS011;43163;51.032;18.280;2022-09-29T10:05:23;6.30;;;5.20;;
57329;SDS011;43163;51.032;18.280;2022-09-29T10:07:53;6.50;;;5.30;;
57329;SDS011;43163;51.032;18.280;2022-09-29T10:10:24;5.90;;;4.60;;
57329;SDS011;43163;51.032;18.280;2022-09-29T10:13:05;7.20;;;5.70;;
57329;SDS011;43163;51.032;18.280;2022-09-29T10:15:36;6.20;;;5.20;;
57329;SDS011;43163;51.032;18.280;2022-09-29T10:18:11;7.50;;;4.90;;
57329;SDS011;43163;51.032;18.280;2022-09-29T10:20:41;6.50;;;4.60;;
57329;SDS011;43163;51.032;18.280;2022-09-29T10:23:17;5.90;;;4.90;;
57329;SDS011;43163;51.032;18.280;2022-09-29T10:26:11;6.40;;;5.20;;
57329;SDS011;43163;51.032;18.280;2022-09-29T10:28:44;7.20;;;5.40;;
57329;SDS011;43163;51.032;18.280;2022-09-29T10:31:29;5.80;;;5.20;;
57329;SDS011;43163;51.032;18.280;2022-09-29T10:37:00;7.20;;;4.80;;
57329;SDS011;43163;51.032;18.280;2022-09-29T10:39:30;5.90;;;4.90;;
57329;SDS011;43163;51.032;18.280;2022-09-29T10:42:23;7.70;;;5.60;;
57329;SDS011;43163;51.032;18.280;2022-09-29T10:45:13;5.90;;;5.30;;
57329;SDS011;43163;51.032;18.280;2022-09-29T10:50:29;9.20;;;6.10;;
57329;SDS011;43163;51.032;18.280;2022-09-29T10:53:34;13.10;;;6.10;;
57329;SDS011;43163;51.032;18.280;2022-09-29T10:56:18;8.30;;;6.00;;
57329;SDS011;43163;51.032;18.280;2022-09-29T10:59:20;8.40;;;5.10;;
57329;SDS011;43163;51.032;18.280;2022-09-29T11:02:13;6.40;;;5.10;;
57329;SDS011;43163;51.032;18.280;2022-09-29T11:04:31;11.00;;;5.40;;
57329;SDS011;43163;51.032;18.280;2022-09-29T11:07:08;6.60;;;5.20;;
57329;SDS011;43163;51.032;18.280;2022-09-29T11:09:40;5.20;;;4.50;;
57329;SDS011;43163;51.032;18.280;2022-09-29T11:15:20;7.20;;;4.90;;
57329;SDS011;43163;51.032;18.280;2022-09-29T11:17:55;6.50;;;5.10;;
57329;SDS011;43163;51.032;18.280;2022-09-29T11:20:24;7.30;;;4.60;;
57329;SDS011;43163;51.032;18.280;2022-09-29T11:26:02;4.20;;;3.60;;
57329;SDS011;43163;51.032;18.280;2022-09-29T11:28:42;4.90;;;3.80;;
57329;SDS011;43163;51.032;18.280;2022-09-29T11:39:49;4.90;;;3.80;;
57329;SDS011;43163;51.032;18.280;2022-09-29T11:45:09;3.80;;;3.10;;
57329;SDS011;43163;51.032;18.280;2022-09-29T11:47:46;4.50;;;3.00;;
57329;SDS011;43163;51.032;18.280;2022-09-29T11:50:21;4.60;;;2.90;;
57329;SDS011;43163;51.032;18.280;2022-09-29T11:53:34;5.30;;;3.20;;
57329;SDS011;43163;51.032;18.280;2022-09-29T12:04:28;3.80;;;2.80;;
57329;SDS011;43163;51.032;18.280;2022-09-29T12:10:36;4.20;;;2.90;;
57329;SDS011;43163;51.032;18.280;2022-09-29T12:13:12;3.50;;;2.70;;
57329;SDS011;43163;51.032;18.280;2022-09-29T12:18:29;6.30;;;3.00;;
57329;SDS011;43163;51.032;18.280;2022-09-29T12:21:07;4.40;;;2.70;;
57329;SDS011;43163;51.032;18.280;2022-09-29T12:23:35;3.30;;;2.90;;
57329;SDS011;43163;51.032;18.280;2022-09-29T12:26:05;2.90;;;2.50;;
57329;SDS011;43163;51.032;18.280;2022-09-29T12:28:37;3.80;;;3.10;;
57329;SDS011;43163;51.032;18.280;2022-09-29T12:31:10;4.40;;;3.30;;
57329;SDS011;43163;51.032;18.280;2022-09-29T12:33:41;3.50;;;2.90;;
57329;SDS011;43163;51.032;18.280;2022-09-29T12:41:39;3.60;;;3.10;;
57329;SDS011;43163;51.032;18.280;2022-09-29T12:44:30;3.70;;;3.10;;
57329;SDS011;43163;51.032;18.280;2022-09-29T12:47:18;3.90;;;3.10;;
57329;SDS011;43163;51.032;18.280;2022-09-29T12:53:24;3.50;;;2.90;;
57329;SDS011;43163;51.032;18.280;2022-09-29T12:55:57;4.20;;;3.40;;
57329;SDS011;43163;51.032;18.280;2022-09-29T12:59:00;4.00;;;3.30;;
57329;SDS011;43163;51.032;18.280;2022-09-29T13:01:31;4.80;;;3.10;;
57329;SDS011;43163;51.032;18.280;2022-09-29T13:09:18;3.70;;;3.00;;
57329;SDS011;43163;51.032;18.280;2022-09-29T13:11:56;5.30;;;3.10;;
57329;SDS011;43163;51.032;18.280;2022-09-29T13:25:56;4.40;;;2.90;;
57329;SDS011;43163;51.032;18.280;2022-09-29T13:28:44;3.80;;;2.80;;
57329;SDS011;43163;51.032;18.280;2022-09-29T13:31:13;3.70;;;2.50;;
57329;SDS011;43163;51.032;18.280;2022-09-29T13:33:46;3.10;;;2.60;;
57329;SDS011;43163;51.032;18.280;2022-09-29T13:36:21;2.70;;;2.50;;
57329;SDS011;43163;51.032;18.280;2022-09-29T13:38:52;3.60;;;2.50;;
57329;SDS011;43163;51.032;18.280;2022-09-29T13:46:37;3.70;;;2.50;;
57329;SDS011;43163;51.032;18.280;2022-09-29T13:52:28;3.10;;;2.40;;
57329;SDS011;43163;51.032;18.280;2022-09-29T13:54:31;2.80;;;2.40;;
57329;SDS011;43163;51.032;18.280;2022-09-29T13:57:06;3.10;;;2.30;;
57329;SDS011;43163;51.032;18.280;2022-09-29T14:02:39;4.60;;;2.00;;
57329;SDS011;43163;51.032;18.280;2022-09-29T14:07:48;7.30;;;2.80;;
57329;SDS011;43163;51.032;18.280;2022-09-29T14:10:45;3.50;;;2.80;;
57329;SDS011;43163;51.032;18.280;2022-09-29T14:13:21;4.30;;;2.60;;
57329;SDS011;43163;51.032;18.280;2022-09-29T14:19:20;3.10;;;2.00;;
57329;SDS011;43163;51.032;18.280;2022-09-29T14:21:55;2.50;;;1.80;;
57329;SDS011;43163;51.032;18.280;2022-09-29T14:29:44;2.20;;;1.90;;
57329;SDS011;43163;51.032;18.280;2022-09-29T14:32:17;8.60;;;3.30;;
57329;SDS011;43163;51.032;18.280;2022-09-29T14:34:45;6.70;;;2.10;;
57329;SDS011;43163;51.032;18.280;2022-09-29T14:37:13;3.40;;;1.50;;
57329;SDS011;43163;51.032;18.280;2022-09-29T14:39:46;4.10;;;1.70;;
57329;SDS011;43163;51.032;18.280;2022-09-29T14:42:33;3.10;;;1.70;;
57329;SDS011;43163;51.032;18.280;2022-09-29T14:45:00;2.00;;;1.70;;
57329;SDS011;43163;51.032;18.280;2022-09-29T14:47:57;2.30;;;1.80;;
57329;SDS011;43163;51.032;18.280;2022-09-29T14:57:09;3.10;;;2.10;;
57329;SDS011;43163;51.032;18.280;2022-09-29T15:02:17;4.80;;;2.40;;
57329;SDS011;43163;51.032;18.280;2022-09-29T15:04:49;3.60;;;2.10;;
57329;SDS011;43163;51.032;18.280;2022-09-29T15:07:17;3.60;;;2.30;;
57329;SDS011;43163;51.032;18.280;2022-09-29T15:09:51;3.80;;;2.00;;
57329;SDS011;43163;51.032;18.280;2022-09-29T15:12:20;3.30;;;2.30;;
57329;SDS011;43163;51.032;18.280;2022-09-29T15:14:51;5.70;;;2.30;;
57329;SDS011;43163;51.032;18.280;2022-09-29T15:22:46;8.60;;;2.70;;
57329;SDS011;43163;51.032;18.280;2022-09-29T15:25:28;8.00;;;5.20;;
57329;SDS011;43163;51.032;18.280;2022-09-29T15:28:15;3.60;;;2.60;;
57329;SDS011;43163;51.032;18.280;2022-09-29T15:30:47;3.90;;;3.00;;
57329;SDS011;43163;51.032;18.280;2022-09-29T15:33:19;7.30;;;6.40;;
57329;SDS011;43163;51.032;18.280;2022-09-29T15:35:51;5.60;;;4.60;;
57329;SDS011;43163;51.032;18.280;2022-09-29T15:40:53;5.80;;;3.60;;
57329;SDS011;43163;51.032;18.280;2022-09-29T15:43:24;4.30;;;3.70;;
57329;SDS011;43163;51.032;18.280;2022-09-29T15:45:56;5.20;;;2.90;;
57329;SDS011;43163;51.032;18.280;2022-09-29T15:48:28;6.90;;;2.60;;
57329;SDS011;43163;51.032;18.280;2022-09-29T15:50:55;4.20;;;2.60;;
57329;SDS011;43163;51.032;18.280;2022-09-29T15:53:26;4.60;;;2.40;;
57329;SDS011;43163;51.032;18.280;2022-09-29T15:55:53;7.60;;;3.70;;
57329;SDS011;43163;51.032;18.280;2022-09-29T16:01:13;14.80;;;7.80;;
57329;SDS011;43163;51.032;18.280;2022-09-29T16:03:55;8.80;;;6.10;;
57329;SDS011;43163;51.032;18.280;2022-09-29T16:06:32;8.10;;;4.30;;
57329;SDS011;43163;51.032;18.280;2022-09-29T16:09:04;5.90;;;3.20;;
57329;SDS011;43163;51.032;18.280;2022-09-29T16:11:36;6.10;;;2.90;;
57329;SDS011;43163;51.032;18.280;2022-09-29T16:14:15;4.00;;;2.40;;
57329;SDS011;43163;51.032;18.280;2022-09-29T16:16:50;3.80;;;2.50;;
57329;SDS011;43163;51.032;18.280;2022-09-29T16:19:27;3.30;;;2.20;;
57329;SDS011;43163;51.032;18.280;2022-09-29T16:21:56;6.20;;;2.20;;
57329;SDS011;43163;51.032;18.280;2022-09-29T16:24:28;4.40;;;2.50;;
57329;SDS011;43163;51.032;18.280;2022-09-29T16:26:57;4.10;;;2.20;;
57329;SDS011;43163;51.032;18.280;2022-09-29T16:29:34;6.20;;;2.70;;
57329;SDS011;43163;51.032;18.280;2022-09-29T16:32:34;5.50;;;3.00;;
57329;SDS011;43163;51.032;18.280;2022-09-29T16:40:48;6.50;;;3.20;;
57329;SDS011;43163;51.032;18.280;2022-09-29T16:43:20;4.90;;;3.00;;
57329;SDS011;43163;51.032;18.280;2022-09-29T16:45:48;7.40;;;3.10;;
57329;SDS011;43163;51.032;18.280;2022-09-29T16:48:16;4.40;;;2.80;;
57329;SDS011;43163;51.032;18.280;2022-09-29T16:50:46;7.40;;;3.10;;
57329;SDS011;43163;51.032;18.280;2022-09-29T16:53:21;6.70;;;4.60;;
57329;SDS011;43163;51.032;18.280;2022-09-29T16:56:05;9.20;;;6.70;;
57329;SDS011;43163;51.032;18.280;2022-09-29T16:58:34;8.40;;;6.30;;
57329;SDS011;43163;51.032;18.280;2022-09-29T17:01:01;24.00;;;12.40;;
57329;SDS011;43163;51.032;18.280;2022-09-29T17:03:28;18.30;;;12.20;;
57329;SDS011;43163;51.032;18.280;2022-09-29T17:05:55;18.40;;;11.50;;
57329;SDS011;43163;51.032;18.280;2022-09-29T17:08:22;12.90;;;8.30;;
57329;SDS011;43163;51.032;18.280;2022-09-29T17:10:51;10.80;;;7.10;;
57329;SDS011;43163;51.032;18.280;2022-09-29T17:13:19;9.50;;;5.30;;
57329;SDS011;43163;51.032;18.280;2022-09-29T17:15:46;6.10;;;4.70;;
57329;SDS011;43163;51.032;18.280;2022-09-29T17:18:17;7.10;;;4.50;;
57329;SDS011;43163;51.032;18.280;2022-09-29T17:20:45;9.00;;;4.30;;
57329;SDS011;43163;51.032;18.280;2022-09-29T17:23:13;8.80;;;4.50;;
57329;SDS011;43163;51.032;18.280;2022-09-29T17:25:41;6.10;;;4.30;;
57329;SDS011;43163;51.032;18.280;2022-09-29T17:28:19;7.60;;;4.40;;
57329;SDS011;43163;51.032;18.280;2022-09-29T17:30:50;7.40;;;4.50;;
57329;SDS011;43163;51.032;18.280;2022-09-29T17:33:24;6.70;;;4.90;;